This is the latest recevied weather packets stored in our database for station/object F5IOR. If no packets are shown the sender has not sent any weather packets the latest 10 day(s).
| Time | Temp. | Humidity | Pressure | Rain* | Wind** | Luminosity | Snow |
|---|---|---|---|---|---|---|---|
| 1787499384 | 28.33° C | 26% | 990.2 hPa | 0 mm | - | - | - |
| 1787497583 | 28.33° C | 26% | 990.4 hPa | 0 mm | - | - | - |
| 1787495784 | 28.33° C | 26% | 990.4 hPa | 0 mm | - | - | - |
| 1787493984 | 28.33° C | 26% | 990.6 hPa | 0 mm | - | - | - |
| 1787492183 | 28.33° C | 26% | 990.8 hPa | 0 mm | - | - | - |
| 1787490383 | 27.78° C | 25% | 991.6 hPa | 0 mm | - | - | - |
| 1787488583 | 27.22° C | 25% | 991.7 hPa | 0 mm | - | - | - |
| 1787486783 | 26.67° C | 27% | 992 hPa | 0 mm | - | - | - |
| 1787484983 | 26.67° C | 27% | 992.1 hPa | 0 mm | - | - | - |
| 1787483183 | 25.56° C | 30% | 992.4 hPa | 0 mm | - | - | - |
| 1787481384 | 25° C | 32% | 992.4 hPa | 0 mm | - | - | - |
| 1787479583 | 22.78° C | 38% | 992.7 hPa | 0 mm | - | - | - |
| 1787477783 | 22.78° C | 40% | 992.8 hPa | 0 mm | - | - | - |
| 1787476823 | 21.11° C | 44% | 992.9 hPa | 0 mm | - | - | - |
| 1787475864 | 20.56° C | 46% | 992.9 hPa | 0 mm | - | - | - |
| 1787474904 | 20° C | 49% | 992.8 hPa | 0 mm | - | - | - |
| 1787473943 | 18.33° C | 54% | 992.8 hPa | 0 mm | - | - | - |
| 1787473463 | 18.33° C | 54% | 992.8 hPa | 0 mm | - | - | - |
| 1787472983 | 18.33° C | 54% | 992.8 hPa | 0 mm | - | - | - |
| 1787472503 | 17.78° C | 56% | 992.8 hPa | 0 mm | - | - | - |
| 1787472023 | 17.78° C | 56% | 992.8 hPa | 0 mm | - | - | - |
| 1787471783 | 17.22° C | 57% | 992.8 hPa | 0 mm | - | - | - |
| 1787471544 | 17.22° C | 57% | 992.8 hPa | 0 mm | - | - | - |
| 1787471304 | 17.22° C | 57% | 992.8 hPa | 0 mm | - | - | - |
| 1787471063 | 17.22° C | 57% | 992.8 hPa | 0 mm | - | - | - |
* Rain latest hour (hover to see other rain measurements)
** Current wind speed in m/s (hover to see current wind gust speed)